Time;durP1;ratioP1;P1;durP2;ratioP2;P2;SDS_P1;SDS_P2;PMS_P1;PMS_P2;Temp;Humidity;BMP_temperature;BMP_pressure;BME280_temperature;BME280_humidity;BME280_pressure;Samples;Min_cycle;Max_cycle;Signal;HPM_P1;HPM_P2
2024/01/04 00:02:17;;;;;;;1.33;0.70;;;12.00;63.50;;;;;;4965637;28;20195;-62
2024/01/04 00:04:43;;;;;;;2.13;0.57;;;12.10;63.20;;;;;;4964136;28;20183;-62
2024/01/04 00:07:08;;;;;;;1.50;1.10;;;12.00;63.60;;;;;;4967527;28;21048;-61
2024/01/04 00:09:34;;;;;;;1.10;0.80;;;11.90;65.00;;;;;;4965366;28;20565;-62
2024/01/04 00:12:00;;;;;;;1.67;0.80;;;11.70;65.90;;;;;;4966631;28;20222;-62
2024/01/04 00:14:25;;;;;;;0.87;0.70;;;11.80;66.10;;;;;;4966486;28;20195;-61
2024/01/04 00:16:51;;;;;;;1.00;0.80;;;11.80;66.70;;;;;;4966458;28;20928;-62
2024/01/04 00:19:16;;;;;;;1.53;0.70;;;12.10;66.50;;;;;;4968012;28;20195;-61
2024/01/04 00:21:42;;;;;;;3.63;0.90;;;12.20;66.40;;;;;;4963895;28;20198;-61
2024/01/04 00:24:07;;;;;;;3.03;0.90;;;12.30;65.90;;;;;;4960886;28;20195;-62
2024/01/04 00:26:33;;;;;;;2.00;1.00;;;12.20;66.20;;;;;;4964882;28;20998;-62
2024/01/04 00:28:59;;;;;;;1.57;0.80;;;12.20;66.50;;;;;;4966797;28;20183;-61
2024/01/04 00:31:25;;;;;;;1.57;0.87;;;12.50;66.00;;;;;;4959823;28;20230;-62
2024/01/04 00:33:51;;;;;;;2.00;1.03;;;12.40;65.60;;;;;;4966511;28;20443;-60
2024/01/04 00:36:16;;;;;;;2.47;1.07;;;12.50;66.10;;;;;;4964593;28;20202;-62
2024/01/04 00:38:42;;;;;;;2.20;1.03;;;12.60;65.90;;;;;;4960887;28;20275;-62
2024/01/04 00:41:07;;;;;;;2.30;0.90;;;12.70;65.70;;;;;;4962191;28;20191;-62
2024/01/04 00:43:33;;;;;;;6.20;1.23;;;12.70;66.20;;;;;;4963396;28;20316;-62
2024/01/04 00:45:59;;;;;;;1.47;0.87;;;12.60;66.50;;;;;;4965803;28;20762;-62
2024/01/04 00:48:24;;;;;;;1.27;1.00;;;12.60;66.50;;;;;;4962903;28;20199;-61
2024/01/04 00:50:50;;;;;;;2.70;1.00;;;12.50;66.60;;;;;;4961737;28;20247;-62
2024/01/04 00:53:15;;;;;;;0.70;0.53;;;12.50;66.40;;;;;;4960444;28;20222;-61
2024/01/04 00:55:41;;;;;;;2.07;1.20;;;12.50;66.40;;;;;;4966173;28;20207;-62
2024/01/04 00:58:07;;;;;;;4.10;0.80;;;12.40;66.50;;;;;;4967989;28;20239;-61
2024/01/04 01:00:33;;;;;;;1.90;0.90;;;12.30;66.10;;;;;;4964701;28;20561;-62
2024/01/04 01:02:59;;;;;;;2.10;1.00;;;12.20;67.00;;;;;;4964318;28;20796;-61
2024/01/04 01:05:24;;;;;;;2.30;0.90;;;12.00;68.00;;;;;;4959872;28;20297;-61
2024/01/04 01:07:50;;;;;;;2.20;0.80;;;11.90;68.30;;;;;;4963020;28;20574;-62
2024/01/04 01:10:16;;;;;;;2.37;0.73;;;11.90;69.30;;;;;;4960967;28;20315;-62
2024/01/04 01:12:41;;;;;;;1.13;0.73;;;11.80;69.10;;;;;;4959872;28;20219;-62
2024/01/04 01:15:07;;;;;;;4.47;0.93;;;11.80;69.90;;;;;;4962021;28;20290;-62
2024/01/04 01:17:33;;;;;;;3.57;1.00;;;12.00;70.10;;;;;;4960781;28;21169;-62
2024/01/04 01:19:58;;;;;;;1.90;0.87;;;12.10;69.70;;;;;;4963189;28;20191;-61
2024/01/04 01:22:26;;;;;;;2.83;0.80;;;12.00;69.50;;;;;;4967174;28;20206;-62
2024/01/04 01:24:52;;;;;;;5.17;0.80;;;12.00;70.60;;;;;;4964333;28;20219;-61
2024/01/04 01:27:17;;;;;;;2.80;0.70;;;11.90;71.00;;;;;;4964447;28;20855;-61
2024/01/04 01:29:43;;;;;;;5.23;1.20;;;12.00;71.10;;;;;;4963676;28;20221;-62
2024/01/04 01:32:08;;;;;;;5.20;0.80;;;12.00;70.90;;;;;;4966859;28;20222;-62
2024/01/04 01:34:34;;;;;;;3.80;0.83;;;12.00;70.90;;;;;;4968666;28;20198;-62
2024/01/04 01:37:00;;;;;;;3.00;1.10;;;12.10;70.40;;;;;;4964991;28;20217;-62
2024/01/04 01:39:25;;;;;;;3.40;0.97;;;12.20;70.30;;;;;;4961605;28;20219;-62
2024/01/04 01:41:51;;;;;;;2.90;0.80;;;12.40;69.80;;;;;;4961530;28;20187;-62
2024/01/04 01:44:17;;;;;;;5.30;1.37;;;12.60;69.10;;;;;;4966997;28;20199;-62
2024/01/04 01:46:44;;;;;;;2.57;0.87;;;12.70;68.80;;;;;;4965172;28;20474;-62
2024/01/04 01:49:10;;;;;;;3.90;1.40;;;12.50;68.30;;;;;;4967227;28;20505;-62
2024/01/04 01:51:36;;;;;;;3.10;0.87;;;12.50;68.20;;;;;;4968325;28;20507;-62
2024/01/04 01:54:03;;;;;;;1.97;0.90;;;12.30;68.80;;;;;;4969980;28;20187;-62
2024/01/04 01:56:30;;;;;;;1.63;0.90;;;12.10;69.10;;;;;;4968063;28;20485;-62
2024/01/04 01:58:57;;;;;;;1.53;0.70;;;11.90;69.90;;;;;;4969140;28;20433;-62
2024/01/04 02:01:23;;;;;;;1.60;0.80;;;11.90;70.10;;;;;;4968790;28;20518;-62
2024/01/04 02:03:49;;;;;;;1.83;1.10;;;11.60;70.60;;;;;;4966954;28;20969;-62
2024/01/04 02:06:15;;;;;;;1.67;0.80;;;11.40;72.00;;;;;;4968180;28;20627;-62
2024/01/04 02:08:44;;;;;;;2.40;0.73;;;11.30;73.40;;;;;;4964048;28;20449;-62
2024/01/04 02:11:09;;;;;;;2.30;1.27;;;11.10;73.70;;;;;;4968880;28;20195;-61
2024/01/04 02:13:35;;;;;;;1.07;0.70;;;10.90;73.20;;;;;;4970406;28;20453;-62
2024/01/04 02:16:01;;;;;;;0.93;0.60;;;10.80;73.30;;;;;;4967194;28;20211;-62
2024/01/04 02:18:26;;;;;;;3.17;0.90;;;10.90;74.30;;;;;;4967785;28;20192;-61
2024/01/04 02:20:52;;;;;;;0.70;0.60;;;10.90;73.00;;;;;;4967464;28;20285;-62
2024/01/04 02:23:18;;;;;;;1.67;0.60;;;11.00;73.00;;;;;;4963020;28;20336;-62
2024/01/04 02:25:44;;;;;;;0.80;0.60;;;11.10;72.00;;;;;;4966262;28;20698;-61
2024/01/04 02:28:09;;;;;;;3.03;0.87;;;11.40;71.50;;;;;;4967876;28;20451;-62
2024/01/04 02:30:35;;;;;;;0.60;0.50;;;11.40;70.30;;;;;;4970370;28;20614;-62
2024/01/04 02:33:00;;;;;;;1.13;0.70;;;11.40;69.70;;;;;;4968339;28;20306;-62
2024/01/04 02:35:26;;;;;;;2.10;0.60;;;11.50;69.10;;;;;;4967243;28;20222;-62
2024/01/04 02:37:52;;;;;;;0.70;0.60;;;11.40;69.20;;;;;;4964590;28;20196;-62
2024/01/04 02:40:18;;;;;;;0.73;0.53;;;11.40;69.90;;;;;;4967544;28;20203;-61
2024/01/04 02:42:44;;;;;;;0.70;0.60;;;11.20;69.50;;;;;;4968881;28;20954;-62
2024/01/04 02:45:10;;;;;;;2.10;0.50;;;11.20;69.50;;;;;;4966570;28;20514;-62
2024/01/04 02:47:36;;;;;;;0.83;0.50;;;11.10;70.40;;;;;;4965106;28;20820;-62
2024/01/04 02:50:02;;;;;;;0.73;0.50;;;11.10;70.60;;;;;;4964593;28;20451;-61
2024/01/04 02:52:28;;;;;;;0.70;0.67;;;11.10;71.10;;;;;;4965883;28;20851;-62
2024/01/04 02:54:54;;;;;;;0.70;0.60;;;11.00;69.80;;;;;;4966343;28;20431;-62
2024/01/04 02:57:19;;;;;;;1.73;0.90;;;11.00;70.10;;;;;;4962767;28;20215;-62
2024/01/04 02:59:45;;;;;;;2.20;0.60;;;10.90;69.10;;;;;;4959703;28;20622;-62
2024/01/04 03:02:10;;;;;;;0.70;0.70;;;10.90;69.30;;;;;;4960479;28;20563;-61
2024/01/04 03:04:40;;;;;;;1.47;0.50;;;10.80;68.50;;;;;;4969468;28;20357;-62
2024/01/04 03:07:06;;;;;;;0.70;0.50;;;10.90;67.70;;;;;;4963093;28;20270;-62
2024/01/04 03:09:32;;;;;;;0.50;0.50;;;10.70;67.20;;;;;;4967497;28;20444;-62
2024/01/04 03:11:57;;;;;;;0.50;0.40;;;10.70;68.00;;;;;;4965279;28;20588;-61
2024/01/04 03:14:23;;;;;;;0.60;0.50;;;10.70;67.70;;;;;;4966415;28;20202;-62
2024/01/04 03:16:48;;;;;;;0.50;0.43;;;10.70;67.40;;;;;;4962946;28;20686;-62
2024/01/04 03:19:14;;;;;;;1.30;0.63;;;10.70;67.60;;;;;;4967669;28;20199;-62
2024/01/04 03:21:39;;;;;;;0.70;0.63;;;10.70;68.10;;;;;;4965675;28;20183;-62
2024/01/04 03:24:05;;;;;;;0.70;0.60;;;10.60;67.70;;;;;;4964331;28;20195;-61
2024/01/04 03:26:31;;;;;;;1.13;0.50;;;10.70;67.00;;;;;;4958590;28;20303;-63
2024/01/04 03:28:56;;;;;;;1.00;0.60;;;10.70;67.70;;;;;;4957365;28;20799;-62
2024/01/04 03:31:22;;;;;;;0.50;0.50;;;10.80;67.70;;;;;;4964426;28;20222;-62
2024/01/04 03:33:49;;;;;;;1.87;1.07;;;10.80;67.40;;;;;;4962294;28;20266;-62
2024/01/04 03:36:15;;;;;;;0.70;0.50;;;11.10;68.10;;;;;;4960470;28;20227;-62
2024/01/04 03:38:40;;;;;;;0.70;0.70;;;11.10;67.90;;;;;;4963493;28;20490;-62
2024/01/04 03:41:07;;;;;;;1.47;0.67;;;11.00;67.80;;;;;;4960701;28;20880;-62
2024/01/04 03:43:34;;;;;;;1.93;1.30;;;11.00;68.40;;;;;;4964197;28;20191;-62
2024/01/04 03:45:59;;;;;;;2.13;0.70;;;11.10;68.30;;;;;;4957725;28;20482;-62
2024/01/04 03:48:25;;;;;;;0.80;0.60;;;10.80;68.60;;;;;;4964732;28;20509;-62
2024/01/04 03:50:50;;;;;;;0.50;0.50;;;10.60;70.00;;;;;;4961945;28;20215;-62
2024/01/04 03:53:16;;;;;;;3.57;0.80;;;10.80;69.80;;;;;;4964226;28;20242;-62
2024/01/04 03:55:41;;;;;;;0.77;0.50;;;10.90;69.60;;;;;;4963983;28;20199;-62
2024/01/04 03:58:07;;;;;;;0.60;0.60;;;10.90;69.80;;;;;;4966446;28;20195;-61
2024/01/04 04:00:33;;;;;;;2.53;0.57;;;10.90;69.10;;;;;;4965276;28;20187;-62
2024/01/04 04:02:58;;;;;;;3.97;0.57;;;10.80;70.00;;;;;;4961584;28;20223;-61
2024/01/04 04:05:24;;;;;;;0.70;0.50;;;10.60;70.30;;;;;;4965455;28;20227;-61
2024/01/04 04:07:50;;;;;;;0.73;0.53;;;10.50;71.40;;;;;;4968773;28;20191;-62
2024/01/04 04:10:16;;;;;;;1.43;0.80;;;10.50;72.00;;;;;;4966174;28;20226;-62
2024/01/04 04:12:41;;;;;;;1.93;0.70;;;10.80;72.20;;;;;;4969470;28;20215;-62
2024/01/04 04:15:08;;;;;;;3.50;1.70;;;10.90;70.90;;;;;;4964957;28;20779;-61
2024/01/04 04:17:34;;;;;;;1.23;1.00;;;10.90;70.60;;;;;;4966300;28;20210;-62
2024/01/04 04:20:00;;;;;;;3.10;0.80;;;10.90;70.80;;;;;;4966378;28;20783;-62
2024/01/04 04:22:26;;;;;;;1.00;0.60;;;10.90;70.70;;;;;;4967881;28;20459;-62
2024/01/04 04:24:51;;;;;;;4.60;0.90;;;10.90;70.60;;;;;;4963959;28;20195;-61
2024/01/04 04:27:17;;;;;;;0.73;0.70;;;11.00;70.90;;;;;;4966999;28;20210;-61
2024/01/04 04:29:42;;;;;;;0.60;0.50;;;11.00;70.50;;;;;;4967816;28;20192;-62
2024/01/04 04:32:08;;;;;;;5.30;1.03;;;11.10;69.90;;;;;;4966495;28;20226;-61
2024/01/04 04:34:35;;;;;;;0.77;0.50;;;11.20;70.10;;;;;;4965351;28;20322;-62
2024/01/04 04:37:00;;;;;;;3.20;0.77;;;11.30;70.20;;;;;;4960179;28;20218;-62
2024/01/04 04:39:26;;;;;;;1.60;0.60;;;11.30;69.60;;;;;;4965085;28;20455;-62
2024/01/04 04:41:52;;;;;;;0.93;0.83;;;11.30;69.80;;;;;;4961562;28;20202;-62
2024/01/04 04:44:17;;;;;;;1.17;0.63;;;11.10;69.60;;;;;;4959709;28;20298;-62
2024/01/04 04:46:43;;;;;;;2.63;0.83;;;11.30;70.10;;;;;;4967742;28;20369;-62
2024/01/04 04:49:08;;;;;;;1.07;0.60;;;11.30;69.80;;;;;;4963429;28;20185;-61
2024/01/04 04:51:34;;;;;;;1.77;0.80;;;11.30;70.10;;;;;;4962644;28;20223;-63
2024/01/04 04:54:00;;;;;;;0.70;0.70;;;11.40;70.90;;;;;;4966122;28;20187;-62
2024/01/04 04:56:25;;;;;;;1.90;0.70;;;11.30;71.20;;;;;;4964782;28;20753;-62
2024/01/04 04:58:51;;;;;;;2.10;0.90;;;11.30;72.40;;;;;;4962095;28;20191;-62
2024/01/04 05:01:16;;;;;;;1.70;0.90;;;11.50;72.20;;;;;;4965693;28;20191;-61
2024/01/04 05:03:42;;;;;;;4.60;0.90;;;11.50;71.40;;;;;;4964237;28;20778;-61
2024/01/04 05:06:08;;;;;;;3.90;1.00;;;11.60;71.20;;;;;;4963016;28;20239;-62
2024/01/04 05:08:34;;;;;;;1.43;0.70;;;11.60;71.70;;;;;;4963086;28;20277;-61
2024/01/04 05:10:59;;;;;;;1.80;0.93;;;11.70;71.70;;;;;;4961127;28;20531;-65
2024/01/04 05:13:25;;;;;;;2.40;1.00;;;11.60;71.90;;;;;;4963875;28;20219;-62
2024/01/04 05:15:50;;;;;;;3.53;0.90;;;11.90;71.50;;;;;;4962729;28;20207;-61
2024/01/04 05:18:16;;;;;;;3.37;0.63;;;11.60;71.70;;;;;;4966021;28;20322;-62
2024/01/04 05:20:41;;;;;;;4.33;1.00;;;11.60;73.00;;;;;;4966498;28;20234;-61
2024/01/04 05:23:07;;;;;;;2.40;0.90;;;11.80;72.30;;;;;;4965629;28;20208;-61
2024/01/04 05:25:36;;;;;;;1.00;0.70;;;11.80;72.00;;;;;;4967436;28;20310;-61
2024/01/04 05:28:01;;;;;;;3.27;1.30;;;11.80;72.10;;;;;;4965908;28;20187;-61
2024/01/04 05:30:28;;;;;;;2.30;0.87;;;11.50;72.20;;;;;;4966837;28;20453;-62
2024/01/04 05:32:53;;;;;;;2.87;0.83;;;11.40;72.80;;;;;;4970479;28;20942;-61
2024/01/04 05:35:19;;;;;;;6.23;0.80;;;11.50;72.70;;;;;;4969879;28;20468;-61
2024/01/04 05:37:44;;;;;;;2.10;1.07;;;11.30;72.30;;;;;;4972549;28;20808;-61
2024/01/04 05:40:10;;;;;;;0.93;0.70;;;11.30;73.40;;;;;;4973155;28;20280;-61
2024/01/04 05:42:36;;;;;;;2.10;0.90;;;11.60;73.60;;;;;;4972222;28;20182;-61
2024/01/04 05:45:04;;;;;;;1.57;1.00;;;11.60;72.00;;;;;;4969548;28;20187;-62
2024/01/04 05:47:29;;;;;;;3.43;1.00;;;11.60;72.10;;;;;;4971918;28;20991;-61
2024/01/04 05:49:55;;;;;;;2.70;1.30;;;11.60;72.30;;;;;;4971750;28;20455;-61
2024/01/04 05:52:21;;;;;;;2.10;0.80;;;11.60;71.40;;;;;;4973241;28;20572;-62
2024/01/04 05:54:46;;;;;;;5.07;1.33;;;11.50;71.90;;;;;;4970862;28;20449;-62
2024/01/04 05:57:12;;;;;;;2.77;1.10;;;11.70;71.70;;;;;;4970637;28;20198;-62
2024/01/04 05:59:37;;;;;;;1.07;0.87;;;11.70;71.00;;;;;;4967894;28;20207;-61
2024/01/04 06:02:03;;;;;;;1.20;1.10;;;11.60;69.80;;;;;;4970436;28;21111;-62
2024/01/04 06:04:28;;;;;;;2.53;1.07;;;11.50;70.70;;;;;;4973071;28;20183;-61
2024/01/04 06:06:54;;;;;;;1.57;1.13;;;11.30;70.60;;;;;;4969093;28;20257;-61
2024/01/04 06:09:21;;;;;;;2.10;0.90;;;11.30;70.70;;;;;;4970605;28;20202;-64
2024/01/04 06:11:47;;;;;;;5.67;1.00;;;11.20;70.20;;;;;;4972345;28;20285;-61
2024/01/04 06:14:13;;;;;;;4.40;1.40;;;11.30;71.40;;;;;;4974071;28;20469;-60
2024/01/04 06:16:40;;;;;;;1.90;0.87;;;11.40;70.60;;;;;;4970366;28;20576;-61
2024/01/04 06:19:05;;;;;;;1.00;0.90;;;11.50;70.90;;;;;;4972827;28;21024;-60
2024/01/04 06:21:31;;;;;;;2.63;0.90;;;11.60;70.20;;;;;;4964313;28;20200;-60
2024/01/04 06:23:57;;;;;;;1.63;0.80;;;11.40;70.10;;;;;;4972871;28;20289;-60
2024/01/04 06:26:23;;;;;;;2.03;1.00;;;11.70;71.10;;;;;;4968590;28;20542;-60
2024/01/04 06:28:49;;;;;;;2.40;1.13;;;11.90;69.90;;;;;;4968700;28;20188;-61
2024/01/04 06:31:15;;;;;;;2.50;1.17;;;11.90;69.30;;;;;;4969446;28;20438;-61
2024/01/04 06:33:40;;;;;;;2.53;0.90;;;11.80;68.50;;;;;;4970217;28;20210;-61
2024/01/04 06:36:07;;;;;;;2.93;0.87;;;11.70;68.10;;;;;;4968449;28;20211;-60
2024/01/04 06:38:35;;;;;;;2.83;0.83;;;11.60;68.30;;;;;;4968341;28;20187;-62
2024/01/04 06:41:02;;;;;;;4.97;1.40;;;11.60;68.10;;;;;;4967646;28;20485;-61
2024/01/04 06:43:28;;;;;;;1.60;1.30;;;11.70;67.90;;;;;;4969583;28;20517;-61
2024/01/04 06:45:54;;;;;;;2.30;0.93;;;11.80;68.40;;;;;;4961568;28;20569;-65
2024/01/04 06:48:19;;;;;;;2.03;0.87;;;11.90;67.90;;;;;;4964847;28;20195;-61
2024/01/04 06:50:45;;;;;;;2.53;1.03;;;12.20;67.40;;;;;;4961543;28;20762;-59
2024/01/04 06:53:14;;;;;;;1.97;0.70;;;12.40;66.60;;;;;;4967045;28;20215;-60
2024/01/04 06:55:40;;;;;;;3.20;1.03;;;12.30;66.70;;;;;;4965443;28;20219;-60
2024/01/04 06:58:05;;;;;;;3.20;1.67;;;12.30;67.20;;;;;;4963499;28;20418;-61
2024/01/04 07:00:31;;;;;;;0.87;0.83;;;12.40;67.60;;;;;;4965756;28;20485;-61
2024/01/04 07:02:58;;;;;;;0.90;0.80;;;12.50;66.90;;;;;;4966525;28;20191;-62
2024/01/04 07:05:24;;;;;;;3.03;0.80;;;12.40;66.80;;;;;;4963928;28;20751;-61
2024/01/04 07:07:49;;;;;;;1.13;0.70;;;12.30;66.80;;;;;;4969749;28;20434;-61
2024/01/04 07:10:15;;;;;;;1.13;1.00;;;12.10;66.40;;;;;;4963167;28;20250;-61
2024/01/04 07:12:43;;;;;;;4.20;1.20;;;11.90;66.90;;;;;;4966947;28;20226;-61
2024/01/04 07:15:12;;;;;;;4.37;1.10;;;11.90;67.00;;;;;;4964404;28;20179;-61
2024/01/04 07:17:38;;;;;;;1.90;0.80;;;12.00;66.60;;;;;;4962664;28;20824;-61
2024/01/04 07:20:04;;;;;;;2.73;1.27;;;11.90;66.60;;;;;;4963911;28;20447;-60
2024/01/04 07:22:30;;;;;;;2.53;1.10;;;12.00;67.30;;;;;;4964477;28;20465;-60
2024/01/04 07:24:58;;;;;;;4.00;1.17;;;12.00;66.10;;;;;;4960563;28;20457;-60
2024/01/04 07:27:24;;;;;;;4.80;1.40;;;12.00;66.30;;;;;;4961166;28;20242;-61
2024/01/04 07:29:50;;;;;;;2.10;1.00;;;12.00;66.20;;;;;;4966132;28;20443;-61
2024/01/04 07:32:18;;;;;;;2.00;0.90;;;12.10;65.90;;;;;;4962942;28;20686;-62
2024/01/04 07:34:44;;;;;;;1.20;0.70;;;12.10;65.80;;;;;;4964706;28;20926;-59
2024/01/04 07:37:11;;;;;;;2.50;0.80;;;11.80;65.80;;;;;;4967614;28;20451;-60
2024/01/04 07:39:37;;;;;;;1.40;0.67;;;11.60;67.80;;;;;;4961104;28;20490;-61
2024/01/04 07:42:02;;;;;;;1.33;0.93;;;11.50;67.20;;;;;;4963741;28;20442;-61
2024/01/04 07:44:28;;;;;;;0.90;0.70;;;11.30;67.50;;;;;;4958948;28;20188;-60
2024/01/04 07:46:53;;;;;;;2.87;1.13;;;11.50;68.00;;;;;;4964735;28;20207;-61
2024/01/04 07:49:19;;;;;;;2.40;0.80;;;11.20;67.90;;;;;;4961161;28;20199;-60
2024/01/04 07:51:44;;;;;;;0.97;0.70;;;11.20;68.30;;;;;;4963027;28;20212;-61
2024/01/04 07:54:10;;;;;;;2.53;0.80;;;11.20;69.20;;;;;;4964330;28;20755;-61
2024/01/04 07:56:37;;;;;;;1.33;0.93;;;11.00;68.70;;;;;;4961048;28;20587;-60
2024/01/04 07:59:03;;;;;;;3.03;1.07;;;11.10;69.20;;;;;;4966125;28;20466;-60
2024/01/04 08:01:28;;;;;;;1.00;0.60;;;11.20;68.70;;;;;;4966085;28;20485;-59
2024/01/04 08:03:54;;;;;;;1.20;0.70;;;11.00;68.70;;;;;;4962598;28;20678;-61
2024/01/04 08:06:19;;;;;;;2.90;1.20;;;11.00;69.20;;;;;;4966718;28;20250;-61
2024/01/04 08:08:45;;;;;;;2.07;0.90;;;11.20;69.10;;;;;;4969200;28;20274;-60
2024/01/04 08:11:11;;;;;;;0.80;0.60;;;11.20;68.00;;;;;;4963890;28;20234;-60
2024/01/04 08:13:37;;;;;;;2.73;1.00;;;11.30;68.50;;;;;;4961734;28;20238;-61
2024/01/04 08:16:02;;;;;;;2.13;0.80;;;11.50;67.70;;;;;;4960947;28;20494;-60
2024/01/04 08:18:28;;;;;;;2.13;1.10;;;11.40;67.00;;;;;;4963089;28;20485;-61
2024/01/04 08:20:54;;;;;;;2.77;0.97;;;11.60;66.90;;;;;;4968627;28;20193;-60
2024/01/04 08:23:19;;;;;;;3.43;0.90;;;11.70;66.40;;;;;;4964547;28;20771;-61
2024/01/04 08:25:45;;;;;;;1.50;0.70;;;12.00;65.60;;;;;;4966671;28;20214;-60
2024/01/04 08:28:12;;;;;;;2.17;0.90;;;12.00;64.70;;;;;;4964780;28;20249;-61
2024/01/04 08:30:38;;;;;;;3.57;1.20;;;12.10;64.60;;;;;;4963191;28;20188;-61
2024/01/04 08:33:03;;;;;;;1.63;1.20;;;11.90;63.70;;;;;;4968496;28;21144;-60
2024/01/04 08:35:29;;;;;;;4.67;1.50;;;11.70;64.50;;;;;;4966075;28;20208;-60
2024/01/04 08:37:54;;;;;;;1.53;0.90;;;11.90;65.40;;;;;;4961867;28;20195;-60
2024/01/04 08:40:20;;;;;;;4.10;1.03;;;12.10;63.40;;;;;;4965356;28;20192;-61
2024/01/04 08:42:46;;;;;;;4.33;1.03;;;12.10;63.50;;;;;;4968463;28;20187;-62
2024/01/04 08:45:12;;;;;;;5.20;1.40;;;12.10;62.90;;;;;;4967612;28;20631;-61
2024/01/04 08:47:38;;;;;;;2.17;1.20;;;11.90;62.60;;;;;;4964541;28;20270;-61
2024/01/04 08:50:04;;;;;;;4.43;1.17;;;11.90;62.50;;;;;;4960039;28;20446;-61
2024/01/04 08:52:30;;;;;;;2.33;1.17;;;12.10;63.00;;;;;;4963363;28;20490;-60
2024/01/04 08:54:56;;;;;;;4.10;1.07;;;12.10;62.40;;;;;;4964469;28;20443;-60
2024/01/04 08:57:22;;;;;;;1.87;1.10;;;12.10;62.20;;;;;;4976912;28;20306;-61
2024/01/04 08:59:47;;;;;;;3.70;0.97;;;11.90;61.80;;;;;;4964288;28;20441;-61
2024/01/04 09:02:13;;;;;;;4.13;1.40;;;12.10;61.80;;;;;;4956193;28;20443;-61
2024/01/04 09:04:39;;;;;;;3.07;1.37;;;12.10;62.00;;;;;;4965112;28;20191;-60
2024/01/04 09:07:05;;;;;;;1.60;0.90;;;12.20;61.70;;;;;;4961752;28;20542;-62
2024/01/04 09:09:30;;;;;;;3.20;0.80;;;12.20;60.90;;;;;;4961016;28;20194;-61
2024/01/04 09:11:56;;;;;;;3.90;1.60;;;12.40;61.10;;;;;;4958584;28;20248;-61
2024/01/04 09:14:22;;;;;;;4.00;1.10;;;12.50;60.90;;;;;;4963484;28;20215;-60
2024/01/04 09:16:48;;;;;;;2.77;2.30;;;12.30;59.90;;;;;;4962410;28;20208;-61
2024/01/04 09:19:18;;;;;;;4.00;1.30;;;12.00;60.80;;;;;;4964432;28;20210;-61
2024/01/04 09:21:46;;;;;;;2.40;1.17;;;11.90;61.50;;;;;;4966476;28;20454;-61
2024/01/04 09:24:12;;;;;;;1.57;1.00;;;11.90;61.80;;;;;;4964821;28;21020;-61
2024/01/04 09:26:42;;;;;;;3.00;1.30;;;11.90;61.80;;;;;;4965757;28;20458;-61
2024/01/04 09:29:09;;;;;;;3.80;1.17;;;12.10;61.80;;;;;;4968144;28;20221;-61
2024/01/04 09:31:35;;;;;;;1.37;1.13;;;11.80;61.10;;;;;;4962650;28;20451;-60
2024/01/04 09:34:01;;;;;;;2.57;1.03;;;11.90;61.70;;;;;;4957871;28;20457;-62
2024/01/04 09:36:26;;;;;;;2.87;0.90;;;12.00;61.40;;;;;;4961010;28;20261;-61
2024/01/04 09:38:52;;;;;;;5.10;1.13;;;11.90;60.90;;;;;;4966021;28;20226;-61
2024/01/04 09:41:36;;;;;;;2.37;1.30;;;12.10;60.90;;;;;;4963832;28;20765;-61
2024/01/04 09:44:06;;;;;;;2.20;1.00;;;12.30;60.30;;;;;;4966165;28;20198;-62
2024/01/04 09:46:31;;;;;;;2.10;1.00;;;12.70;59.50;;;;;;4962437;28;20466;-62
2024/01/04 09:49:01;;;;;;;4.60;1.40;;;13.20;59.20;;;;;;4962574;28;20994;-61
2024/01/04 09:51:47;;;;;;;2.97;1.43;;;13.50;57.50;;;;;;4962395;28;20195;-62
2024/01/04 09:54:13;;;;;;;3.90;1.43;;;13.60;57.10;;;;;;4958494;28;20496;-61
2024/01/04 09:56:43;;;;;;;3.63;1.10;;;13.50;56.30;;;;;;4958803;28;21298;-62
2024/01/04 09:59:10;;;;;;;3.93;1.50;;;13.50;56.80;;;;;;4966851;28;20453;-63
2024/01/04 10:01:38;;;;;;;3.77;1.40;;;13.50;56.70;;;;;;4964723;28;20474;-62
2024/01/04 10:04:11;;;;;;;2.30;1.17;;;13.60;56.70;;;;;;4966145;28;20445;-62
2024/01/04 10:06:38;;;;;;;6.90;1.33;;;13.60;56.30;;;;;;4968536;28;20462;-61
2024/01/04 10:09:18;;;;;;;7.97;1.53;;;13.30;55.90;;;;;;4970341;28;20561;-62
2024/01/04 10:11:56;;;;;;;3.40;1.00;;;13.40;56.60;;;;;;4966085;28;20522;-62
2024/01/04 10:14:26;;;;;;;5.20;1.30;;;13.30;56.00;;;;;;4963378;28;20477;-62
2024/01/04 10:16:52;;;;;;;4.80;1.67;;;13.10;56.10;;;;;;4962160;28;20513;-62
2024/01/04 10:19:18;;;;;;;1.60;0.83;;;13.00;56.80;;;;;;4965854;28;20611;-62
2024/01/04 10:21:44;;;;;;;2.77;0.80;;;13.10;56.30;;;;;;4965416;28;20935;-62
2024/01/04 10:24:15;;;;;;;1.60;0.90;;;12.70;56.10;;;;;;4963145;28;20505;-62
2024/01/04 10:26:44;;;;;;;1.67;1.00;;;12.90;56.80;;;;;;4959254;28;20321;-62
2024/01/04 10:29:10;;;;;;;2.40;1.00;;;12.70;56.90;;;;;;4960818;28;20466;-62
2024/01/04 10:31:36;;;;;;;3.40;0.83;;;12.50;57.50;;;;;;4964161;28;20464;-62
2024/01/04 10:34:02;;;;;;;1.73;1.00;;;12.60;58.50;;;;;;4967386;28;20434;-62
2024/01/04 10:36:28;;;;;;;3.40;0.93;;;12.70;58.50;;;;;;4961170;28;20282;-62
2024/01/04 10:38:59;;;;;;;1.37;0.60;;;12.60;59.40;;;;;;4964777;28;20469;-62
2024/01/04 10:41:28;;;;;;;0.90;0.70;;;12.30;58.90;;;;;;4969770;28;21059;-62
2024/01/04 10:44:06;;;;;;;0.83;0.67;;;12.10;60.00;;;;;;4967192;28;20544;-65
2024/01/04 10:46:34;;;;;;;1.97;0.80;;;11.80;62.30;;;;;;4958825;28;20483;-62
2024/01/04 10:49:00;;;;;;;3.60;0.90;;;11.60;62.90;;;;;;4963111;28;21049;-62
2024/01/04 10:51:29;;;;;;;4.10;1.00;;;11.50;65.00;;;;;;4962104;28;20436;-61
2024/01/04 10:53:58;;;;;;;2.23;1.17;;;11.50;65.20;;;;;;4965040;28;20443;-62
2024/01/04 10:56:25;;;;;;;2.97;1.40;;;11.70;66.00;;;;;;4962439;28;20532;-61
2024/01/04 10:58:51;;;;;;;2.50;1.20;;;11.70;66.60;;;;;;4965069;28;20447;-62
2024/01/04 11:01:18;;;;;;;5.23;1.10;;;11.70;65.70;;;;;;4965204;28;21625;-62
2024/01/04 11:03:46;;;;;;;3.57;1.23;;;12.00;65.70;;;;;;4962091;28;20435;-62
2024/01/04 11:06:14;;;;;;;2.37;1.40;;;12.30;66.00;;;;;;4967469;28;20771;-62
2024/01/04 11:08:41;;;;;;;3.63;1.60;;;12.90;64.20;;;;;;4966988;28;20479;-63
2024/01/04 11:11:07;;;;;;;3.50;1.30;;;13.10;62.60;;;;;;4970367;28;20962;-62
2024/01/04 11:13:33;;;;;;;2.80;1.47;;;13.50;60.70;;;;;;4966562;28;20490;-62
2024/01/04 11:16:04;;;;;;;2.00;1.07;;;13.80;59.30;;;;;;4966318;28;20462;-62
2024/01/04 11:19:03;;;;;;;1.53;1.00;;;13.40;57.70;;;;;;4961390;28;20677;-62
2024/01/04 11:21:40;;;;;;;1.27;0.80;;;13.50;58.60;;;;;;4968790;28;20939;-62
2024/01/04 11:24:17;;;;;;;1.50;0.97;;;13.50;58.20;;;;;;4962710;28;20431;-62
2024/01/04 11:26:49;;;;;;;1.20;0.60;;;13.50;58.10;;;;;;4966124;28;20494;-62
2024/01/04 11:29:15;;;;;;;0.93;0.70;;;13.50;57.90;;;;;;4962085;28;20447;-63
2024/01/04 11:31:42;;;;;;;2.33;0.90;;;13.10;58.30;;;;;;4960998;28;20556;-63
2024/01/04 11:34:10;;;;;;;2.30;0.60;;;13.00;58.50;;;;;;4961452;28;20493;-63
2024/01/04 11:36:36;;;;;;;1.27;0.70;;;12.80;58.40;;;;;;4964101;28;20478;-62
2024/01/04 11:39:01;;;;;;;2.23;1.20;;;12.80;58.50;;;;;;4968140;28;20459;-62
2024/01/04 11:41:34;;;;;;;2.03;0.60;;;12.70;59.10;;;;;;4964652;28;20187;-62
2024/01/04 11:44:00;;;;;;;1.87;1.10;;;12.80;59.30;;;;;;4963108;28;20203;-63
2024/01/04 11:46:26;;;;;;;1.43;0.60;;;12.80;59.60;;;;;;4964007;28;20454;-63
2024/01/04 11:48:55;;;;;;;1.00;0.90;;;12.80;59.90;;;;;;4961221;28;20196;-63
2024/01/04 11:51:34;;;;;;;0.80;0.77;;;12.90;60.00;;;;;;4965289;28;20442;-62
2024/01/04 11:53:59;;;;;;;2.30;0.60;;;13.10;60.50;;;;;;4966192;28;20945;-62
2024/01/04 11:56:25;;;;;;;2.93;1.10;;;13.00;60.30;;;;;;4968231;28;20513;-63
2024/01/04 11:58:51;;;;;;;1.50;1.00;;;12.70;60.20;;;;;;4962673;28;20192;-62
2024/01/04 12:01:24;;;;;;;2.30;0.83;;;12.50;61.80;;;;;;4965572;28;20530;-63
2024/01/04 12:03:54;;;;;;;0.80;0.67;;;12.60;62.90;;;;;;4961016;28;20625;-63
2024/01/04 12:06:23;;;;;;;1.10;0.60;;;12.40;61.10;;;;;;4967263;28;20458;-63
2024/01/04 12:08:49;;;;;;;1.70;0.60;;;12.20;61.50;;;;;;4967009;28;20451;-63
2024/01/04 12:11:16;;;;;;;1.20;0.77;;;12.40;61.60;;;;;;4963962;28;20990;-63
2024/01/04 12:13:41;;;;;;;1.13;0.70;;;12.60;61.60;;;;;;4966782;28;20491;-62
2024/01/04 12:16:07;;;;;;;1.60;1.10;;;13.00;61.10;;;;;;4964223;28;20462;-63
2024/01/04 12:18:33;;;;;;;2.20;0.90;;;13.10;60.50;;;;;;4962820;28;20195;-63
2024/01/04 12:21:03;;;;;;;3.70;0.80;;;13.20;60.10;;;;;;4967335;28;20191;-62
2024/01/04 12:23:29;;;;;;;1.00;0.80;;;13.40;60.20;;;;;;4963665;28;20466;-63
2024/01/04 12:25:55;;;;;;;1.00;0.80;;;13.40;59.80;;;;;;4968206;28;20452;-63
2024/01/04 12:28:20;;;;;;;2.30;0.70;;;13.60;59.90;;;;;;4964143;28;20430;-63
2024/01/04 12:30:46;;;;;;;1.00;0.60;;;13.80;58.90;;;;;;4965285;28;20195;-63
2024/01/04 12:33:12;;;;;;;3.10;0.90;;;14.10;58.60;;;;;;4963766;28;20219;-63
2024/01/04 12:35:38;;;;;;;4.27;0.77;;;14.10;56.80;;;;;;4957534;28;20298;-62
2024/01/04 12:38:07;;;;;;;3.63;0.87;;;14.00;56.80;;;;;;4965194;28;20222;-62
2024/01/04 12:40:45;;;;;;;1.67;1.03;;;13.70;55.70;;;;;;4967737;28;20454;-63
2024/01/04 12:43:15;;;;;;;4.00;1.07;;;14.00;56.40;;;;;;4962412;28;20867;-63
2024/01/04 12:45:40;;;;;;;1.50;1.10;;;14.10;56.20;;;;;;4959817;28;20565;-62